Flin Flon, Canada
Current Conditions -  °F | °C
As of 5:00 PM on Saturday 25 Oct 2014 (Local Time) from CYFO Reporting Station
Scattered Clouds Scattered Clouds  
Wind Chill: 32°   Ceiling: Unl
Heat Index: 39°   Visibility: 15mi
Dew Point: 25°   Wind: 13mph
Humidity: 56%   Direction: 310°NW
Pressure: 29.94"   Gusts: 20mph
Location:  54.77°N, 101.88°W
Report Text: CYFO 252200Z 31011G17KT 280V350 15SM SCT025 04/M04 A2994 RMK SC4 SLP152
Loading
Personal Weather Stations






























Interactive Weather Map New forecast layout! Learn more

10-Day Weather Forecast

Advertisements
Track Severe Weather on mobile